sensor_id;sensor_type;location;lat;lon;timestamp;temperature;humidity
16229;DHT22;8222;51.462;12.630;2022-09-27T00:01:15;14.60;99.90
16229;DHT22;8222;51.462;12.630;2022-09-27T00:03:41;14.60;99.90
16229;DHT22;8222;51.462;12.630;2022-09-27T00:06:13;14.60;99.90
16229;DHT22;8222;51.462;12.630;2022-09-27T00:08:39;14.70;99.90
16229;DHT22;8222;51.462;12.630;2022-09-27T00:11:09;14.70;99.90
16229;DHT22;8222;51.462;12.630;2022-09-27T00:13:38;14.70;99.90
16229;DHT22;8222;51.462;12.630;2022-09-27T00:16:03;14.60;99.90
16229;DHT22;8222;51.462;12.630;2022-09-27T00:18:32;14.60;99.90
16229;DHT22;8222;51.462;12.630;2022-09-27T00:21:08;14.60;99.90
16229;DHT22;8222;51.462;12.630;2022-09-27T00:23:35;14.50;99.90
16229;DHT22;8222;51.462;12.630;2022-09-27T00:26:03;14.50;99.90
16229;DHT22;8222;51.462;12.630;2022-09-27T00:28:29;14.60;99.90
16229;DHT22;8222;51.462;12.630;2022-09-27T00:30:56;14.60;99.90
16229;DHT22;8222;51.462;12.630;2022-09-27T00:33:21;14.60;99.90
16229;DHT22;8222;51.462;12.630;2022-09-27T00:35:49;14.60;99.90
16229;DHT22;8222;51.462;12.630;2022-09-27T00:38:15;14.60;99.90
16229;DHT22;8222;51.462;12.630;2022-09-27T00:40:43;14.50;99.90
16229;DHT22;8222;51.462;12.630;2022-09-27T00:43:21;14.50;99.90
16229;DHT22;8222;51.462;12.630;2022-09-27T00:45:57;14.50;99.90
16229;DHT22;8222;51.462;12.630;2022-09-27T00:48:27;14.50;99.90
16229;DHT22;8222;51.462;12.630;2022-09-27T00:50:59;14.40;99.90
16229;DHT22;8222;51.462;12.630;2022-09-27T00:56:07;14.40;99.90
16229;DHT22;8222;51.462;12.630;2022-09-27T00:58:42;14.40;99.90
16229;DHT22;8222;51.462;12.630;2022-09-27T01:01:09;14.40;99.90
16229;DHT22;8222;51.462;12.630;2022-09-27T01:03:54;14.40;99.90
16229;DHT22;8222;51.462;12.630;2022-09-27T01:06:21;14.30;99.90
16229;DHT22;8222;51.462;12.630;2022-09-27T01:08:49;14.40;99.90
16229;DHT22;8222;51.462;12.630;2022-09-27T01:11:24;14.30;99.90
16229;DHT22;8222;51.462;12.630;2022-09-27T01:20:02;14.20;99.90
16229;DHT22;8222;51.462;12.630;2022-09-27T01:33:27;14.20;99.90
16229;DHT22;8222;51.462;12.630;2022-09-27T01:47:02;14.10;99.90
16229;DHT22;8222;51.462;12.630;2022-09-27T01:49:38;14.10;99.90
16229;DHT22;8222;51.462;12.630;2022-09-27T01:52:07;14.10;99.90
16229;DHT22;8222;51.462;12.630;2022-09-27T01:54:40;14.10;99.90
16229;DHT22;8222;51.462;12.630;2022-09-27T01:57:09;14.10;99.90
16229;DHT22;8222;51.462;12.630;2022-09-27T01:59:46;14.10;99.90
16229;DHT22;8222;51.462;12.630;2022-09-27T02:02:16;14.10;99.90
16229;DHT22;8222;51.462;12.630;2022-09-27T02:04:47;14.20;99.90
16229;DHT22;8222;51.462;12.630;2022-09-27T02:07:21;14.20;99.90
16229;DHT22;8222;51.462;12.630;2022-09-27T02:09:52;14.20;99.90
16229;DHT22;8222;51.462;12.630;2022-09-27T02:12:27;14.20;99.90
16229;DHT22;8222;51.462;12.630;2022-09-27T02:15:00;14.10;99.90
16229;DHT22;8222;51.462;12.630;2022-09-27T02:20:29;14.00;99.90
16229;DHT22;8222;51.462;12.630;2022-09-27T02:26:15;13.90;99.90
16229;DHT22;8222;51.462;12.630;2022-09-27T02:28:49;13.80;99.90
16229;DHT22;8222;51.462;12.630;2022-09-27T02:31:16;13.90;99.90
16229;DHT22;8222;51.462;12.630;2022-09-27T02:33:48;14.00;99.90
16229;DHT22;8222;51.462;12.630;2022-09-27T02:36:15;14.00;99.90
16229;DHT22;8222;51.462;12.630;2022-09-27T02:38:43;14.00;99.90
16229;DHT22;8222;51.462;12.630;2022-09-27T02:41:16;14.00;99.90
16229;DHT22;8222;51.462;12.630;2022-09-27T02:43:47;14.10;99.90
16229;DHT22;8222;51.462;12.630;2022-09-27T02:49:35;14.10;99.90
16229;DHT22;8222;51.462;12.630;2022-09-27T02:52:40;14.10;99.90
16229;DHT22;8222;51.462;12.630;2022-09-27T03:00:19;14.00;99.90
16229;DHT22;8222;51.462;12.630;2022-09-27T03:03:17;14.10;99.90
16229;DHT22;8222;51.462;12.630;2022-09-27T03:05:52;14.10;99.90
16229;DHT22;8222;51.462;12.630;2022-09-27T03:08:19;14.20;99.90
16229;DHT22;8222;51.462;12.630;2022-09-27T03:10:47;14.10;99.90
16229;DHT22;8222;51.462;12.630;2022-09-27T03:13:15;14.70;99.90
16229;DHT22;8222;51.462;12.630;2022-09-27T03:15:40;14.10;99.90
16229;DHT22;8222;51.462;12.630;2022-09-27T03:18:06;14.10;99.90
16229;DHT22;8222;51.462;12.630;2022-09-27T03:20:32;14.10;99.90
16229;DHT22;8222;51.462;12.630;2022-09-27T03:22:57;14.10;99.90
16229;DHT22;8222;51.462;12.630;2022-09-27T03:25:23;14.10;99.90
16229;DHT22;8222;51.462;12.630;2022-09-27T03:27:51;14.00;99.90
16229;DHT22;8222;51.462;12.630;2022-09-27T03:30:18;14.00;99.90
16229;DHT22;8222;51.462;12.630;2022-09-27T03:32:45;13.90;99.90
16229;DHT22;8222;51.462;12.630;2022-09-27T03:35:12;13.90;99.90
16229;DHT22;8222;51.462;12.630;2022-09-27T03:37:42;13.90;99.90
16229;DHT22;8222;51.462;12.630;2022-09-27T03:40:10;13.80;99.90
16229;DHT22;8222;51.462;12.630;2022-09-27T03:42:36;13.80;99.90
16229;DHT22;8222;51.462;12.630;2022-09-27T03:45:02;13.80;99.90
16229;DHT22;8222;51.462;12.630;2022-09-27T03:47:30;13.80;99.90
16229;DHT22;8222;51.462;12.630;2022-09-27T03:49:56;13.70;99.90
16229;DHT22;8222;51.462;12.630;2022-09-27T03:52:21;13.70;99.90
16229;DHT22;8222;51.462;12.630;2022-09-27T03:54:49;13.70;99.90
16229;DHT22;8222;51.462;12.630;2022-09-27T03:57:17;13.80;99.90
16229;DHT22;8222;51.462;12.630;2022-09-27T03:59:42;13.80;99.90
16229;DHT22;8222;51.462;12.630;2022-09-27T04:02:08;13.80;99.90
16229;DHT22;8222;51.462;12.630;2022-09-27T04:04:34;13.80;99.90
16229;DHT22;8222;51.462;12.630;2022-09-27T04:07:01;13.80;99.90
16229;DHT22;8222;51.462;12.630;2022-09-27T04:09:29;13.90;99.90
16229;DHT22;8222;51.462;12.630;2022-09-27T04:11:55;13.80;99.90
16229;DHT22;8222;51.462;12.630;2022-09-27T04:14:21;13.80;99.90
16229;DHT22;8222;51.462;12.630;2022-09-27T04:16:48;13.70;99.90
16229;DHT22;8222;51.462;12.630;2022-09-27T04:19:16;13.70;99.90
16229;DHT22;8222;51.462;12.630;2022-09-27T04:21:42;13.60;99.90
16229;DHT22;8222;51.462;12.630;2022-09-27T04:24:07;13.60;99.90
16229;DHT22;8222;51.462;12.630;2022-09-27T04:26:35;13.70;99.90
16229;DHT22;8222;51.462;12.630;2022-09-27T04:29:02;13.60;99.90
16229;DHT22;8222;51.462;12.630;2022-09-27T04:31:32;13.60;99.90
16229;DHT22;8222;51.462;12.630;2022-09-27T04:34:01;13.60;99.90
16229;DHT22;8222;51.462;12.630;2022-09-27T04:36:27;13.60;99.90
16229;DHT22;8222;51.462;12.630;2022-09-27T04:38:54;13.70;99.90
16229;DHT22;8222;51.462;12.630;2022-09-27T04:41:20;13.70;99.90
16229;DHT22;8222;51.462;12.630;2022-09-27T04:43:47;13.70;99.90
16229;DHT22;8222;51.462;12.630;2022-09-27T04:46:13;13.60;99.90
16229;DHT22;8222;51.462;12.630;2022-09-27T04:48:39;13.50;99.90
16229;DHT22;8222;51.462;12.630;2022-09-27T04:51:08;13.60;99.90
16229;DHT22;8222;51.462;12.630;2022-09-27T04:53:35;13.60;99.90
16229;DHT22;8222;51.462;12.630;2022-09-27T04:56:01;13.50;99.90
16229;DHT22;8222;51.462;12.630;2022-09-27T04:58:32;13.50;99.90
16229;DHT22;8222;51.462;12.630;2022-09-27T05:00:58;13.60;99.90
16229;DHT22;8222;51.462;12.630;2022-09-27T05:03:24;13.60;99.90
16229;DHT22;8222;51.462;12.630;2022-09-27T05:05:51;13.60;99.90
16229;DHT22;8222;51.462;12.630;2022-09-27T05:08:16;13.50;99.90
16229;DHT22;8222;51.462;12.630;2022-09-27T05:10:42;13.40;99.90
16229;DHT22;8222;51.462;12.630;2022-09-27T05:13:08;13.40;99.90
16229;DHT22;8222;51.462;12.630;2022-09-27T05:15:33;13.50;99.90
16229;DHT22;8222;51.462;12.630;2022-09-27T05:18:01;13.50;99.90
16229;DHT22;8222;51.462;12.630;2022-09-27T05:20:26;13.60;99.90
16229;DHT22;8222;51.462;12.630;2022-09-27T05:22:54;13.50;99.90
16229;DHT22;8222;51.462;12.630;2022-09-27T05:25:20;13.50;99.90
16229;DHT22;8222;51.462;12.630;2022-09-27T05:27:49;13.50;99.90
16229;DHT22;8222;51.462;12.630;2022-09-27T05:30:19;13.50;99.90
16229;DHT22;8222;51.462;12.630;2022-09-27T05:32:45;13.50;99.90
16229;DHT22;8222;51.462;12.630;2022-09-27T05:35:15;13.50;99.90
16229;DHT22;8222;51.462;12.630;2022-09-27T05:37:43;13.40;99.90
16229;DHT22;8222;51.462;12.630;2022-09-27T05:40:08;13.40;99.90
16229;DHT22;8222;51.462;12.630;2022-09-27T05:42:37;13.40;99.90
16229;DHT22;8222;51.462;12.630;2022-09-27T05:45:03;13.40;99.90
16229;DHT22;8222;51.462;12.630;2022-09-27T05:47:29;13.50;99.90
16229;DHT22;8222;51.462;12.630;2022-09-27T05:49:55;13.50;99.90
16229;DHT22;8222;51.462;12.630;2022-09-27T05:52:20;13.60;99.90
16229;DHT22;8222;51.462;12.630;2022-09-27T05:54:46;13.50;99.90
16229;DHT22;8222;51.462;12.630;2022-09-27T05:57:12;13.60;99.90
16229;DHT22;8222;51.462;12.630;2022-09-27T05:59:37;13.60;99.90
16229;DHT22;8222;51.462;12.630;2022-09-27T06:02:03;13.70;99.90
16229;DHT22;8222;51.462;12.630;2022-09-27T06:04:29;13.70;99.90
16229;DHT22;8222;51.462;12.630;2022-09-27T06:06:54;13.70;99.90
16229;DHT22;8222;51.462;12.630;2022-09-27T06:09:23;13.80;99.90
16229;DHT22;8222;51.462;12.630;2022-09-27T06:11:53;13.70;99.90
16229;DHT22;8222;51.462;12.630;2022-09-27T06:14:19;13.70;99.90
16229;DHT22;8222;51.462;12.630;2022-09-27T06:16:47;13.80;99.90
16229;DHT22;8222;51.462;12.630;2022-09-27T06:19:12;13.80;99.90
16229;DHT22;8222;51.462;12.630;2022-09-27T06:21:38;13.90;99.90
16229;DHT22;8222;51.462;12.630;2022-09-27T06:24:04;14.00;99.90
16229;DHT22;8222;51.462;12.630;2022-09-27T06:26:32;14.10;99.90
16229;DHT22;8222;51.462;12.630;2022-09-27T06:28:58;14.20;99.90
16229;DHT22;8222;51.462;12.630;2022-09-27T06:31:23;14.30;99.90
16229;DHT22;8222;51.462;12.630;2022-09-27T06:33:49;14.30;99.90
16229;DHT22;8222;51.462;12.630;2022-09-27T06:36:15;14.40;99.90
16229;DHT22;8222;51.462;12.630;2022-09-27T06:38:41;14.50;99.90
16229;DHT22;8222;51.462;12.630;2022-09-27T06:41:06;14.50;99.90
16229;DHT22;8222;51.462;12.630;2022-09-27T06:43:34;14.60;99.90
16229;DHT22;8222;51.462;12.630;2022-09-27T06:46:00;14.60;99.90
16229;DHT22;8222;51.462;12.630;2022-09-27T06:48:33;14.70;99.90
16229;DHT22;8222;51.462;12.630;2022-09-27T06:51:02;14.70;99.90
16229;DHT22;8222;51.462;12.630;2022-09-27T06:53:27;14.80;99.90
16229;DHT22;8222;51.462;12.630;2022-09-27T06:55:59;14.90;99.90
16229;DHT22;8222;51.462;12.630;2022-09-27T06:58:27;14.90;99.90
16229;DHT22;8222;51.462;12.630;2022-09-27T07:01:11;14.80;99.90
16229;DHT22;8222;51.462;12.630;2022-09-27T07:03:39;14.80;99.90
16229;DHT22;8222;51.462;12.630;2022-09-27T07:06:17;14.70;99.90
16229;DHT22;8222;51.462;12.630;2022-09-27T07:08:49;14.70;99.90
16229;DHT22;8222;51.462;12.630;2022-09-27T07:11:15;14.70;99.90
16229;DHT22;8222;51.462;12.630;2022-09-27T07:13:41;14.80;99.90
16229;DHT22;8222;51.462;12.630;2022-09-27T07:16:10;14.80;99.90
16229;DHT22;8222;51.462;12.630;2022-09-27T07:18:38;14.90;99.90
16229;DHT22;8222;51.462;12.630;2022-09-27T07:21:04;14.90;99.90
16229;DHT22;8222;51.462;12.630;2022-09-27T07:23:33;14.90;99.90
16229;DHT22;8222;51.462;12.630;2022-09-27T07:26:05;14.90;99.90
16229;DHT22;8222;51.462;12.630;2022-09-27T07:28:33;14.90;99.90
16229;DHT22;8222;51.462;12.630;2022-09-27T07:30:59;14.90;99.90
16229;DHT22;8222;51.462;12.630;2022-09-27T07:33:27;15.00;99.90
16229;DHT22;8222;51.462;12.630;2022-09-27T07:35:53;15.00;99.90
16229;DHT22;8222;51.462;12.630;2022-09-27T07:38:20;14.90;99.90
16229;DHT22;8222;51.462;12.630;2022-09-27T07:40:47;15.00;99.90
16229;DHT22;8222;51.462;12.630;2022-09-27T07:43:16;15.10;99.90
16229;DHT22;8222;51.462;12.630;2022-09-27T07:45:44;15.10;99.90
16229;DHT22;8222;51.462;12.630;2022-09-27T07:48:14;15.10;99.90
16229;DHT22;8222;51.462;12.630;2022-09-27T07:50:40;15.20;99.90
16229;DHT22;8222;51.462;12.630;2022-09-27T07:53:06;15.30;99.90
16229;DHT22;8222;51.462;12.630;2022-09-27T07:55:31;15.50;99.90
16229;DHT22;8222;51.462;12.630;2022-09-27T07:58:08;15.50;99.90
16229;DHT22;8222;51.462;12.630;2022-09-27T08:00:39;15.60;99.90
16229;DHT22;8222;51.462;12.630;2022-09-27T08:03:10;15.60;99.90
16229;DHT22;8222;51.462;12.630;2022-09-27T08:05:43;15.80;99.90
16229;DHT22;8222;51.462;12.630;2022-09-27T08:08:09;15.90;99.90
16229;DHT22;8222;51.462;12.630;2022-09-27T08:10:37;15.90;99.90
16229;DHT22;8222;51.462;12.630;2022-09-27T08:13:09;16.00;99.90
16229;DHT22;8222;51.462;12.630;2022-09-27T08:15:35;16.10;99.90
16229;DHT22;8222;51.462;12.630;2022-09-27T08:18:04;16.10;99.90
16229;DHT22;8222;51.462;12.630;2022-09-27T08:20:32;16.00;99.90
16229;DHT22;8222;51.462;12.630;2022-09-27T08:22:58;16.10;99.90
16229;DHT22;8222;51.462;12.630;2022-09-27T08:25:24;16.10;99.90
16229;DHT22;8222;51.462;12.630;2022-09-27T08:27:57;15.90;99.90
16229;DHT22;8222;51.462;12.630;2022-09-27T08:30:23;16.00;99.90
16229;DHT22;8222;51.462;12.630;2022-09-27T08:32:53;16.10;99.90
16229;DHT22;8222;51.462;12.630;2022-09-27T08:35:20;16.20;99.90
16229;DHT22;8222;51.462;12.630;2022-09-27T08:37:57;16.30;99.90
16229;DHT22;8222;51.462;12.630;2022-09-27T08:40:35;16.40;99.90
16229;DHT22;8222;51.462;12.630;2022-09-27T08:43:27;16.40;99.90
16229;DHT22;8222;51.462;12.630;2022-09-27T08:46:06;16.40;99.90
16229;DHT22;8222;51.462;12.630;2022-09-27T08:48:36;16.60;99.90
16229;DHT22;8222;51.462;12.630;2022-09-27T08:51:04;16.60;99.90
16229;DHT22;8222;51.462;12.630;2022-09-27T08:53:38;16.60;99.90
16229;DHT22;8222;51.462;12.630;2022-09-27T08:56:07;16.70;99.90
16229;DHT22;8222;51.462;12.630;2022-09-27T08:58:44;16.70;99.90
16229;DHT22;8222;51.462;12.630;2022-09-27T09:01:15;16.80;99.90
16229;DHT22;8222;51.462;12.630;2022-09-27T09:03:50;16.90;99.90
16229;DHT22;8222;51.462;12.630;2022-09-27T09:06:25;16.70;99.90
16229;DHT22;8222;51.462;12.630;2022-09-27T09:20:21;15.90;99.90
16229;DHT22;8222;51.462;12.630;2022-09-27T09:25:44;15.90;99.90
16229;DHT22;8222;51.462;12.630;2022-09-27T09:37:00;15.30;99.90
16229;DHT22;8222;51.462;12.630;2022-09-27T09:39:42;15.40;99.90
16229;DHT22;8222;51.462;12.630;2022-09-27T09:42:26;15.40;99.90
16229;DHT22;8222;51.462;12.630;2022-09-27T09:47:37;15.20;99.90
16229;DHT22;8222;51.462;12.630;2022-09-27T09:50:15;15.40;99.90
16229;DHT22;8222;51.462;12.630;2022-09-27T09:52:56;15.40;99.90
16229;DHT22;8222;51.462;12.630;2022-09-27T09:55:32;15.50;99.90
16229;DHT22;8222;51.462;12.630;2022-09-27T10:00:42;15.60;99.90
16229;DHT22;8222;51.462;12.630;2022-09-27T10:03:08;15.80;99.90
16229;DHT22;8222;51.462;12.630;2022-09-27T10:05:37;15.60;99.90
16229;DHT22;8222;51.462;12.630;2022-09-27T10:08:06;15.30;99.90
16229;DHT22;8222;51.462;12.630;2022-09-27T10:10:36;15.00;99.90
16229;DHT22;8222;51.462;12.630;2022-09-27T10:13:03;14.80;99.90
16229;DHT22;8222;51.462;12.630;2022-09-27T10:15:31;14.70;99.90
16229;DHT22;8222;51.462;12.630;2022-09-27T10:18:00;14.80;99.90
16229;DHT22;8222;51.462;12.630;2022-09-27T10:20:41;14.80;99.90
16229;DHT22;8222;51.462;12.630;2022-09-27T10:23:18;14.70;99.90
16229;DHT22;8222;51.462;12.630;2022-09-27T10:28:37;14.80;99.90
16229;DHT22;8222;51.462;12.630;2022-09-27T10:31:05;14.90;99.90
16229;DHT22;8222;51.462;12.630;2022-09-27T10:33:31;14.90;99.90
16229;DHT22;8222;51.462;12.630;2022-09-27T10:35:58;14.80;99.90
16229;DHT22;8222;51.462;12.630;2022-09-27T10:38:27;14.80;99.90
16229;DHT22;8222;51.462;12.630;2022-09-27T10:40:55;14.90;99.90
16229;DHT22;8222;51.462;12.630;2022-09-27T10:43:28;15.50;99.90
16229;DHT22;8222;51.462;12.630;2022-09-27T10:48:48;15.30;99.90
16229;DHT22;8222;51.462;12.630;2022-09-27T10:51:32;15.60;99.90
16229;DHT22;8222;51.462;12.630;2022-09-27T10:54:00;15.80;99.90
16229;DHT22;8222;51.462;12.630;2022-09-27T10:56:30;16.00;99.90
16229;DHT22;8222;51.462;12.630;2022-09-27T10:58:58;16.10;99.90
16229;DHT22;8222;51.462;12.630;2022-09-27T11:01:39;16.10;99.90
16229;DHT22;8222;51.462;12.630;2022-09-27T11:04:05;16.10;99.90
16229;DHT22;8222;51.462;12.630;2022-09-27T11:06:32;16.10;99.90
16229;DHT22;8222;51.462;12.630;2022-09-27T11:09:23;16.00;99.90
16229;DHT22;8222;51.462;12.630;2022-09-27T11:12:06;15.90;99.90
16229;DHT22;8222;51.462;12.630;2022-09-27T11:14:34;15.90;99.90
16229;DHT22;8222;51.462;12.630;2022-09-27T11:25:19;16.60;99.90
16229;DHT22;8222;51.462;12.630;2022-09-27T11:31:06;16.60;99.90
16229;DHT22;8222;51.462;12.630;2022-09-27T11:33:59;16.70;99.90
16229;DHT22;8222;51.462;12.630;2022-09-27T11:58:24;17.10;99.90
16229;DHT22;8222;51.462;12.630;2022-09-27T12:06:29;17.30;99.90
16229;DHT22;8222;51.462;12.630;2022-09-27T12:09:19;17.10;99.90
16229;DHT22;8222;51.462;12.630;2022-09-27T12:16:58;16.50;99.90
16229;DHT22;8222;51.462;12.630;2022-09-27T12:19:31;16.50;99.90
16229;DHT22;8222;51.462;12.630;2022-09-27T12:22:01;16.40;99.90
16229;DHT22;8222;51.462;12.630;2022-09-27T12:24:27;16.40;99.90
16229;DHT22;8222;51.462;12.630;2022-09-27T12:26:55;16.20;99.90
16229;DHT22;8222;51.462;12.630;2022-09-27T12:29:34;16.10;99.90
16229;DHT22;8222;51.462;12.630;2022-09-27T12:32:16;16.10;99.90
16229;DHT22;8222;51.462;12.630;2022-09-27T12:37:47;16.20;99.90
16229;DHT22;8222;51.462;12.630;2022-09-27T12:40:22;16.50;99.90
16229;DHT22;8222;51.462;12.630;2022-09-27T12:43:11;16.50;99.90
16229;DHT22;8222;51.462;12.630;2022-09-27T12:49:04;16.50;99.90
16229;DHT22;8222;51.462;12.630;2022-09-27T12:51:56;16.60;99.90
16229;DHT22;8222;51.462;12.630;2022-09-27T12:54:27;16.60;99.90
16229;DHT22;8222;51.462;12.630;2022-09-27T13:02:52;16.30;99.90
16229;DHT22;8222;51.462;12.630;2022-09-27T13:11:34;16.60;99.90
16229;DHT22;8222;51.462;12.630;2022-09-27T13:14:09;16.90;99.90
16229;DHT22;8222;51.462;12.630;2022-09-27T13:16:42;17.10;99.90
16229;DHT22;8222;51.462;12.630;2022-09-27T13:19:38;17.20;99.90
16229;DHT22;8222;51.462;12.630;2022-09-27T13:22:10;17.30;99.90
16229;DHT22;8222;51.462;12.630;2022-09-27T13:24:54;17.30;99.90
16229;DHT22;8222;51.462;12.630;2022-09-27T13:32:37;17.20;99.90
16229;DHT22;8222;51.462;12.630;2022-09-27T13:37:56;17.30;99.90
16229;DHT22;8222;51.462;12.630;2022-09-27T13:40:29;17.40;99.90
16229;DHT22;8222;51.462;12.630;2022-09-27T13:45:56;17.30;99.90
16229;DHT22;8222;51.462;12.630;2022-09-27T13:48:38;17.40;99.90
16229;DHT22;8222;51.462;12.630;2022-09-27T13:54:34;17.50;99.90
16229;DHT22;8222;51.462;12.630;2022-09-27T13:57:04;17.40;99.90
16229;DHT22;8222;51.462;12.630;2022-09-27T13:59:46;17.50;99.90
16229;DHT22;8222;51.462;12.630;2022-09-27T14:02:28;17.70;99.90
16229;DHT22;8222;51.462;12.630;2022-09-27T14:04:58;17.90;99.90
16229;DHT22;8222;51.462;12.630;2022-09-27T14:07:33;18.00;99.90
16229;DHT22;8222;51.462;12.630;2022-09-27T14:10:04;18.20;99.90
16229;DHT22;8222;51.462;12.630;2022-09-27T14:12:34;18.40;99.90
16229;DHT22;8222;51.462;12.630;2022-09-27T14:15:03;18.30;99.90
16229;DHT22;8222;51.462;12.630;2022-09-27T14:17:33;18.60;99.90
16229;DHT22;8222;51.462;12.630;2022-09-27T14:19:59;18.70;99.90
16229;DHT22;8222;51.462;12.630;2022-09-27T14:22:27;18.60;99.90
16229;DHT22;8222;51.462;12.630;2022-09-27T14:24:55;18.50;99.90
16229;DHT22;8222;51.462;12.630;2022-09-27T14:32:25;18.10;99.90
16229;DHT22;8222;51.462;12.630;2022-09-27T14:35:24;18.10;99.90
16229;DHT22;8222;51.462;12.630;2022-09-27T14:38:20;18.40;99.90
16229;DHT22;8222;51.462;12.630;2022-09-27T14:43:20;18.20;99.90
16229;DHT22;8222;51.462;12.630;2022-09-27T14:45:52;17.80;99.90
16229;DHT22;8222;51.462;12.630;2022-09-27T14:48:29;17.50;99.90
16229;DHT22;8222;51.462;12.630;2022-09-27T14:51:14;17.20;99.90
16229;DHT22;8222;51.462;12.630;2022-09-27T14:53:53;16.90;99.90
16229;DHT22;8222;51.462;12.630;2022-09-27T14:56:35;16.50;99.90
16229;DHT22;8222;51.462;12.630;2022-09-27T14:59:09;16.20;99.90
16229;DHT22;8222;51.462;12.630;2022-09-27T15:01:37;16.10;99.90
16229;DHT22;8222;51.462;12.630;2022-09-27T15:04:11;15.80;99.90
16229;DHT22;8222;51.462;12.630;2022-09-27T15:06:38;15.80;99.90
16229;DHT22;8222;51.462;12.630;2022-09-27T15:09:05;15.90;99.90
16229;DHT22;8222;51.462;12.630;2022-09-27T15:11:33;15.90;99.90
16229;DHT22;8222;51.462;12.630;2022-09-27T15:13:59;15.90;99.90
16229;DHT22;8222;51.462;12.630;2022-09-27T15:16:26;16.00;99.90
16229;DHT22;8222;51.462;12.630;2022-09-27T15:21:44;16.20;99.90
16229;DHT22;8222;51.462;12.630;2022-09-27T15:27:03;16.10;99.90
16229;DHT22;8222;51.462;12.630;2022-09-27T15:29:32;16.20;99.90
16229;DHT22;8222;51.462;12.630;2022-09-27T15:32:03;15.90;99.90
16229;DHT22;8222;51.462;12.630;2022-09-27T15:34:30;16.00;99.90
16229;DHT22;8222;51.462;12.630;2022-09-27T15:37:02;16.00;99.90
16229;DHT22;8222;51.462;12.630;2022-09-27T15:39:39;15.90;99.90
16229;DHT22;8222;51.462;12.630;2022-09-27T15:42:12;15.60;99.90
16229;DHT22;8222;51.462;12.630;2022-09-27T15:52:49;15.00;99.90
16229;DHT22;8222;51.462;12.630;2022-09-27T15:55:17;15.00;99.90
16229;DHT22;8222;51.462;12.630;2022-09-27T15:57:46;14.80;99.90
16229;DHT22;8222;51.462;12.630;2022-09-27T16:00:15;14.80;99.90
16229;DHT22;8222;51.462;12.630;2022-09-27T16:02:41;14.70;99.90
16229;DHT22;8222;51.462;12.630;2022-09-27T16:05:07;14.70;99.90
16229;DHT22;8222;51.462;12.630;2022-09-27T16:07:34;14.70;99.90
16229;DHT22;8222;51.462;12.630;2022-09-27T16:10:00;14.70;99.90
16229;DHT22;8222;51.462;12.630;2022-09-27T16:12:26;14.70;99.90
16229;DHT22;8222;51.462;12.630;2022-09-27T16:14:55;14.70;99.90
16229;DHT22;8222;51.462;12.630;2022-09-27T16:17:22;14.70;99.90
16229;DHT22;8222;51.462;12.630;2022-09-27T16:19:48;14.60;99.90
16229;DHT22;8222;51.462;12.630;2022-09-27T16:22:14;14.60;99.90
16229;DHT22;8222;51.462;12.630;2022-09-27T16:24:42;14.40;99.90
16229;DHT22;8222;51.462;12.630;2022-09-27T16:27:09;14.30;99.90
16229;DHT22;8222;51.462;12.630;2022-09-27T16:29:35;14.30;99.90
16229;DHT22;8222;51.462;12.630;2022-09-27T16:32:01;14.30;99.90
16229;DHT22;8222;51.462;12.630;2022-09-27T16:34:31;14.30;99.90
16229;DHT22;8222;51.462;12.630;2022-09-27T16:36:56;14.30;99.90
16229;DHT22;8222;51.462;12.630;2022-09-27T16:39:22;14.30;99.90
16229;DHT22;8222;51.462;12.630;2022-09-27T16:41:48;14.10;99.90
16229;DHT22;8222;51.462;12.630;2022-09-27T16:44:17;14.00;99.90
16229;DHT22;8222;51.462;12.630;2022-09-27T16:46:43;14.00;99.90
16229;DHT22;8222;51.462;12.630;2022-09-27T16:49:12;13.90;99.90
16229;DHT22;8222;51.462;12.630;2022-09-27T16:51:57;13.90;99.90
16229;DHT22;8222;51.462;12.630;2022-09-27T16:54:26;13.70;99.90
16229;DHT22;8222;51.462;12.630;2022-09-27T16:56:54;13.70;99.90
16229;DHT22;8222;51.462;12.630;2022-09-27T16:59:19;13.70;99.90
16229;DHT22;8222;51.462;12.630;2022-09-27T17:01:45;13.70;99.90
16229;DHT22;8222;51.462;12.630;2022-09-27T17:04:12;13.50;99.90
16229;DHT22;8222;51.462;12.630;2022-09-27T17:06:38;13.50;99.90
16229;DHT22;8222;51.462;12.630;2022-09-27T17:09:04;13.40;99.90
16229;DHT22;8222;51.462;12.630;2022-09-27T17:11:30;13.40;99.90
16229;DHT22;8222;51.462;12.630;2022-09-27T17:13:56;13.40;99.90
16229;DHT22;8222;51.462;12.630;2022-09-27T17:16:22;13.30;99.90
16229;DHT22;8222;51.462;12.630;2022-09-27T17:18:48;13.30;99.90
16229;DHT22;8222;51.462;12.630;2022-09-27T17:21:14;13.40;99.90
16229;DHT22;8222;51.462;12.630;2022-09-27T17:23:40;13.30;99.90
16229;DHT22;8222;51.462;12.630;2022-09-27T17:28:39;13.40;99.90
16229;DHT22;8222;51.462;12.630;2022-09-27T17:31:08;13.30;99.90
16229;DHT22;8222;51.462;12.630;2022-09-27T17:33:38;13.40;99.90
16229;DHT22;8222;51.462;12.630;2022-09-27T17:36:08;13.40;99.90
16229;DHT22;8222;51.462;12.630;2022-09-27T17:38:34;13.40;99.90
16229;DHT22;8222;51.462;12.630;2022-09-27T17:41:02;13.40;99.90
16229;DHT22;8222;51.462;12.630;2022-09-27T17:43:29;13.40;99.90
16229;DHT22;8222;51.462;12.630;2022-09-27T17:46:01;13.40;99.90
16229;DHT22;8222;51.462;12.630;2022-09-27T17:48:27;13.40;99.90
16229;DHT22;8222;51.462;12.630;2022-09-27T17:51:11;13.40;99.90
16229;DHT22;8222;51.462;12.630;2022-09-27T17:53:38;13.40;99.90
16229;DHT22;8222;51.462;12.630;2022-09-27T17:56:04;13.40;99.90
16229;DHT22;8222;51.462;12.630;2022-09-27T17:58:30;13.50;99.90
16229;DHT22;8222;51.462;12.630;2022-09-27T18:01:03;13.50;99.90
16229;DHT22;8222;51.462;12.630;2022-09-27T18:03:30;13.50;99.90
16229;DHT22;8222;51.462;12.630;2022-09-27T18:05:56;13.50;99.90
16229;DHT22;8222;51.462;12.630;2022-09-27T18:08:23;13.50;99.90
16229;DHT22;8222;51.462;12.630;2022-09-27T18:10:48;13.60;99.90
16229;DHT22;8222;51.462;12.630;2022-09-27T18:13:15;13.60;99.90
16229;DHT22;8222;51.462;12.630;2022-09-27T18:15:41;13.70;99.90
16229;DHT22;8222;51.462;12.630;2022-09-27T18:18:07;13.60;99.90
16229;DHT22;8222;51.462;12.630;2022-09-27T18:20:34;13.50;99.90
16229;DHT22;8222;51.462;12.630;2022-09-27T18:23:01;13.50;99.90
16229;DHT22;8222;51.462;12.630;2022-09-27T18:25:27;13.60;99.90
16229;DHT22;8222;51.462;12.630;2022-09-27T18:27:52;13.60;99.90
16229;DHT22;8222;51.462;12.630;2022-09-27T18:30:19;13.50;99.90
16229;DHT22;8222;51.462;12.630;2022-09-27T18:32:45;13.50;99.90
16229;DHT22;8222;51.462;12.630;2022-09-27T18:35:12;13.50;99.90
16229;DHT22;8222;51.462;12.630;2022-09-27T18:37:38;13.60;99.90
16229;DHT22;8222;51.462;12.630;2022-09-27T18:40:04;13.30;99.90
16229;DHT22;8222;51.462;12.630;2022-09-27T18:42:30;13.40;99.90
16229;DHT22;8222;51.462;12.630;2022-09-27T18:44:56;13.40;99.90
16229;DHT22;8222;51.462;12.630;2022-09-27T18:47:21;13.50;99.90